sensor_id;sensor_type;location;lat;lon;timestamp;temperature;humidity
75493;DHT22;64071;51.466;7.260;2022-10-16T00:01:25;22.90;50.20
75493;DHT22;64071;51.466;7.260;2022-10-16T00:03:51;22.90;50.20
75493;DHT22;64071;51.466;7.260;2022-10-16T00:06:19;22.90;50.20
75493;DHT22;64071;51.466;7.260;2022-10-16T00:08:45;22.90;50.20
75493;DHT22;64071;51.466;7.260;2022-10-16T00:11:15;22.90;50.20
75493;DHT22;64071;51.466;7.260;2022-10-16T00:13:42;22.90;50.20
75493;DHT22;64071;51.466;7.260;2022-10-16T00:16:09;22.90;50.20
75493;DHT22;64071;51.466;7.260;2022-10-16T00:18:35;22.90;50.20
75493;DHT22;64071;51.466;7.260;2022-10-16T00:21:14;22.90;50.20
75493;DHT22;64071;51.466;7.260;2022-10-16T00:23:41;22.90;50.20
75493;DHT22;64071;51.466;7.260;2022-10-16T00:26:15;22.90;50.20
75493;DHT22;64071;51.466;7.260;2022-10-16T00:28:41;22.90;50.20
75493;DHT22;64071;51.466;7.260;2022-10-16T00:31:09;22.90;50.20
75493;DHT22;64071;51.466;7.260;2022-10-16T00:33:36;22.90;50.20
75493;DHT22;64071;51.466;7.260;2022-10-16T00:36:04;22.90;50.20
75493;DHT22;64071;51.466;7.260;2022-10-16T00:38:30;22.90;50.20
75493;DHT22;64071;51.466;7.260;2022-10-16T00:40:56;22.90;50.20
75493;DHT22;64071;51.466;7.260;2022-10-16T00:43:49;22.90;50.10
75493;DHT22;64071;51.466;7.260;2022-10-16T00:48:54;22.90;50.10
75493;DHT22;64071;51.466;7.260;2022-10-16T00:51:23;22.90;50.10
75493;DHT22;64071;51.466;7.260;2022-10-16T00:53:50;22.90;50.10
75493;DHT22;64071;51.466;7.260;2022-10-16T00:56:16;22.90;50.20
75493;DHT22;64071;51.466;7.260;2022-10-16T00:58:42;22.90;50.10
75493;DHT22;64071;51.466;7.260;2022-10-16T01:01:07;22.90;50.10
75493;DHT22;64071;51.466;7.260;2022-10-16T01:03:36;22.90;50.10
75493;DHT22;64071;51.466;7.260;2022-10-16T01:11:57;22.90;50.00
75493;DHT22;64071;51.466;7.260;2022-10-16T01:14:47;22.90;50.00
75493;DHT22;64071;51.466;7.260;2022-10-16T01:17:45;22.90;50.00
75493;DHT22;64071;51.466;7.260;2022-10-16T01:25:30;22.90;50.00
75493;DHT22;64071;51.466;7.260;2022-10-16T01:27:59;22.90;50.00
75493;DHT22;64071;51.466;7.260;2022-10-16T01:30:28;22.90;49.90
75493;DHT22;64071;51.466;7.260;2022-10-16T01:33:14;22.90;49.90
75493;DHT22;64071;51.466;7.260;2022-10-16T01:35:46;22.90;49.90
75493;DHT22;64071;51.466;7.260;2022-10-16T01:38:19;22.90;49.90
75493;DHT22;64071;51.466;7.260;2022-10-16T01:40:49;22.90;49.90
75493;DHT22;64071;51.466;7.260;2022-10-16T01:43:27;22.90;49.90
75493;DHT22;64071;51.466;7.260;2022-10-16T01:45:54;22.90;49.90
75493;DHT22;64071;51.466;7.260;2022-10-16T01:48:21;22.90;49.90
75493;DHT22;64071;51.466;7.260;2022-10-16T01:51:02;22.90;49.90
75493;DHT22;64071;51.466;7.260;2022-10-16T01:53:29;22.90;49.90
75493;DHT22;64071;51.466;7.260;2022-10-16T01:55:55;22.90;49.90
75493;DHT22;64071;51.466;7.260;2022-10-16T01:58:24;22.90;49.90
75493;DHT22;64071;51.466;7.260;2022-10-16T02:00:52;22.90;49.90
75493;DHT22;64071;51.466;7.260;2022-10-16T02:03:19;22.90;49.90
75493;DHT22;64071;51.466;7.260;2022-10-16T02:05:50;22.90;49.90
75493;DHT22;64071;51.466;7.260;2022-10-16T02:08:17;22.90;49.90
75493;DHT22;64071;51.466;7.260;2022-10-16T02:10:42;22.80;49.90
75493;DHT22;64071;51.466;7.260;2022-10-16T02:13:12;22.80;49.90
75493;DHT22;64071;51.466;7.260;2022-10-16T02:15:39;22.80;49.80
75493;DHT22;64071;51.466;7.260;2022-10-16T02:18:05;22.80;49.90
75493;DHT22;64071;51.466;7.260;2022-10-16T02:20:36;22.90;49.80
75493;DHT22;64071;51.466;7.260;2022-10-16T02:23:03;22.90;49.80
75493;DHT22;64071;51.466;7.260;2022-10-16T02:25:35;22.80;49.90
75493;DHT22;64071;51.466;7.260;2022-10-16T02:28:07;22.90;49.90
75493;DHT22;64071;51.466;7.260;2022-10-16T02:30:45;22.80;49.90
75493;DHT22;64071;51.466;7.260;2022-10-16T02:33:14;22.80;49.80
75493;DHT22;64071;51.466;7.260;2022-10-16T02:35:41;22.80;49.80
75493;DHT22;64071;51.466;7.260;2022-10-16T02:38:08;22.80;49.80
75493;DHT22;64071;51.466;7.260;2022-10-16T02:40:34;22.80;49.80
75493;DHT22;64071;51.466;7.260;2022-10-16T02:43:02;22.80;49.80
75493;DHT22;64071;51.466;7.260;2022-10-16T02:45:28;22.80;49.80
75493;DHT22;64071;51.466;7.260;2022-10-16T02:47:54;22.80;49.80
75493;DHT22;64071;51.466;7.260;2022-10-16T02:50:20;22.80;49.80
75493;DHT22;64071;51.466;7.260;2022-10-16T02:52:45;22.80;49.80
75493;DHT22;64071;51.466;7.260;2022-10-16T02:55:11;22.80;49.80
75493;DHT22;64071;51.466;7.260;2022-10-16T02:57:36;22.80;49.80
75493;DHT22;64071;51.466;7.260;2022-10-16T03:00:04;22.80;49.70
75493;DHT22;64071;51.466;7.260;2022-10-16T03:02:30;22.80;49.80
75493;DHT22;64071;51.466;7.260;2022-10-16T03:04:56;22.90;49.70
75493;DHT22;64071;51.466;7.260;2022-10-16T03:07:21;22.90;49.70
75493;DHT22;64071;51.466;7.260;2022-10-16T03:09:47;22.80;49.70
75493;DHT22;64071;51.466;7.260;2022-10-16T03:12:12;22.80;49.70
75493;DHT22;64071;51.466;7.260;2022-10-16T03:14:38;22.90;49.70
75493;DHT22;64071;51.466;7.260;2022-10-16T03:17:05;22.80;49.70
75493;DHT22;64071;51.466;7.260;2022-10-16T03:19:33;22.90;49.60
75493;DHT22;64071;51.466;7.260;2022-10-16T03:22:00;22.90;49.60
75493;DHT22;64071;51.466;7.260;2022-10-16T03:24:25;22.90;49.60
75493;DHT22;64071;51.466;7.260;2022-10-16T03:26:51;22.90;49.60
75493;DHT22;64071;51.466;7.260;2022-10-16T03:29:16;22.90;49.50
75493;DHT22;64071;51.466;7.260;2022-10-16T03:31:42;22.90;49.50
75493;DHT22;64071;51.466;7.260;2022-10-16T03:34:08;22.90;49.50
75493;DHT22;64071;51.466;7.260;2022-10-16T03:36:33;22.90;49.50
75493;DHT22;64071;51.466;7.260;2022-10-16T03:38:59;22.90;49.50
75493;DHT22;64071;51.466;7.260;2022-10-16T03:41:24;22.90;49.50
75493;DHT22;64071;51.466;7.260;2022-10-16T03:43:50;22.90;49.50
75493;DHT22;64071;51.466;7.260;2022-10-16T03:46:15;22.90;49.50
75493;DHT22;64071;51.466;7.260;2022-10-16T03:48:41;22.90;49.50
75493;DHT22;64071;51.466;7.260;2022-10-16T03:51:06;22.90;49.50
75493;DHT22;64071;51.466;7.260;2022-10-16T03:53:32;22.90;49.40
75493;DHT22;64071;51.466;7.260;2022-10-16T03:55:57;22.80;49.50
75493;DHT22;64071;51.466;7.260;2022-10-16T03:58:23;22.90;49.50
75493;DHT22;64071;51.466;7.260;2022-10-16T04:00:49;22.80;49.50
75493;DHT22;64071;51.466;7.260;2022-10-16T04:03:15;22.80;49.50
75493;DHT22;64071;51.466;7.260;2022-10-16T04:05:41;22.80;49.50
75493;DHT22;64071;51.466;7.260;2022-10-16T04:08:06;22.80;49.50
75493;DHT22;64071;51.466;7.260;2022-10-16T04:10:32;22.90;49.40
75493;DHT22;64071;51.466;7.260;2022-10-16T04:12:57;22.80;49.50
75493;DHT22;64071;51.466;7.260;2022-10-16T04:15:24;22.80;49.40
75493;DHT22;64071;51.466;7.260;2022-10-16T04:17:50;22.80;49.40
75493;DHT22;64071;51.466;7.260;2022-10-16T04:20:16;22.80;49.40
75493;DHT22;64071;51.466;7.260;2022-10-16T04:22:41;22.80;49.40
75493;DHT22;64071;51.466;7.260;2022-10-16T04:25:07;22.80;49.40
75493;DHT22;64071;51.466;7.260;2022-10-16T04:27:32;22.80;49.40
75493;DHT22;64071;51.466;7.260;2022-10-16T04:29:59;22.80;49.40
75493;DHT22;64071;51.466;7.260;2022-10-16T04:32:25;22.80;49.40
75493;DHT22;64071;51.466;7.260;2022-10-16T04:34:50;22.80;49.40
75493;DHT22;64071;51.466;7.260;2022-10-16T04:37:16;22.80;49.40
75493;DHT22;64071;51.466;7.260;2022-10-16T04:39:42;22.80;49.40
75493;DHT22;64071;51.466;7.260;2022-10-16T04:42:07;22.80;49.40
75493;DHT22;64071;51.466;7.260;2022-10-16T04:44:33;22.80;49.40
75493;DHT22;64071;51.466;7.260;2022-10-16T04:46:58;22.80;49.40
75493;DHT22;64071;51.466;7.260;2022-10-16T04:49:24;22.80;49.40
75493;DHT22;64071;51.466;7.260;2022-10-16T04:51:49;22.80;49.40
75493;DHT22;64071;51.466;7.260;2022-10-16T04:54:15;22.80;49.40
75493;DHT22;64071;51.466;7.260;2022-10-16T04:56:40;22.80;49.40
75493;DHT22;64071;51.466;7.260;2022-10-16T04:59:15;22.80;49.30
75493;DHT22;64071;51.466;7.260;2022-10-16T05:01:41;22.80;49.40
75493;DHT22;64071;51.466;7.260;2022-10-16T05:04:07;22.80;49.30
75493;DHT22;64071;51.466;7.260;2022-10-16T05:06:32;22.80;49.40
75493;DHT22;64071;51.466;7.260;2022-10-16T05:08:58;22.80;49.30
75493;DHT22;64071;51.466;7.260;2022-10-16T05:11:24;22.80;49.30
75493;DHT22;64071;51.466;7.260;2022-10-16T05:13:49;22.80;49.30
75493;DHT22;64071;51.466;7.260;2022-10-16T05:16:15;22.80;49.30
75493;DHT22;64071;51.466;7.260;2022-10-16T05:18:40;22.80;49.20
75493;DHT22;64071;51.466;7.260;2022-10-16T05:21:06;22.80;49.20
75493;DHT22;64071;51.466;7.260;2022-10-16T05:23:32;22.80;49.20
75493;DHT22;64071;51.466;7.260;2022-10-16T05:25:59;22.80;49.20
75493;DHT22;64071;51.466;7.260;2022-10-16T05:28:29;22.80;49.20
75493;DHT22;64071;51.466;7.260;2022-10-16T05:30:55;22.80;49.20
75493;DHT22;64071;51.466;7.260;2022-10-16T05:33:22;22.80;49.20
75493;DHT22;64071;51.466;7.260;2022-10-16T05:35:48;22.80;49.20
75493;DHT22;64071;51.466;7.260;2022-10-16T05:38:15;22.80;49.10
75493;DHT22;64071;51.466;7.260;2022-10-16T05:40:40;22.80;49.10
75493;DHT22;64071;51.466;7.260;2022-10-16T05:43:06;22.80;49.20
75493;DHT22;64071;51.466;7.260;2022-10-16T05:45:32;22.80;49.20
75493;DHT22;64071;51.466;7.260;2022-10-16T05:47:57;22.80;49.20
75493;DHT22;64071;51.466;7.260;2022-10-16T05:50:23;22.80;49.20
75493;DHT22;64071;51.466;7.260;2022-10-16T05:52:48;22.80;49.10
75493;DHT22;64071;51.466;7.260;2022-10-16T05:55:14;22.80;49.10
75493;DHT22;64071;51.466;7.260;2022-10-16T05:57:40;22.80;49.10
75493;DHT22;64071;51.466;7.260;2022-10-16T06:00:07;22.80;49.10
75493;DHT22;64071;51.466;7.260;2022-10-16T06:02:32;22.80;49.10
75493;DHT22;64071;51.466;7.260;2022-10-16T06:04:58;22.80;49.10
75493;DHT22;64071;51.466;7.260;2022-10-16T06:07:23;22.80;49.10
75493;DHT22;64071;51.466;7.260;2022-10-16T06:09:50;22.80;49.10
75493;DHT22;64071;51.466;7.260;2022-10-16T06:12:16;22.80;49.10
75493;DHT22;64071;51.466;7.260;2022-10-16T06:14:41;22.80;49.10
75493;DHT22;64071;51.466;7.260;2022-10-16T06:17:07;22.80;49.10
75493;DHT22;64071;51.466;7.260;2022-10-16T06:19:33;22.80;49.00
75493;DHT22;64071;51.466;7.260;2022-10-16T06:21:58;22.80;49.00
75493;DHT22;64071;51.466;7.260;2022-10-16T06:24:24;22.90;48.90
75493;DHT22;64071;51.466;7.260;2022-10-16T06:26:50;23.00;48.60
75493;DHT22;64071;51.466;7.260;2022-10-16T06:29:15;23.20;48.30
75493;DHT22;64071;51.466;7.260;2022-10-16T06:31:41;23.10;48.30
75493;DHT22;64071;51.466;7.260;2022-10-16T06:34:09;23.10;48.40
75493;DHT22;64071;51.466;7.260;2022-10-16T06:36:36;23.00;48.40
75493;DHT22;64071;51.466;7.260;2022-10-16T06:39:03;23.00;48.50
75493;DHT22;64071;51.466;7.260;2022-10-16T06:41:29;22.90;48.60
75493;DHT22;64071;51.466;7.260;2022-10-16T06:43:54;22.90;48.60
75493;DHT22;64071;51.466;7.260;2022-10-16T06:46:23;22.90;48.60
75493;DHT22;64071;51.466;7.260;2022-10-16T06:48:49;22.90;48.60
75493;DHT22;64071;51.466;7.260;2022-10-16T06:51:17;22.90;48.60
75493;DHT22;64071;51.466;7.260;2022-10-16T06:53:46;22.90;48.60
75493;DHT22;64071;51.466;7.260;2022-10-16T06:56:14;22.90;48.70
75493;DHT22;64071;51.466;7.260;2022-10-16T06:58:41;22.90;48.70
75493;DHT22;64071;51.466;7.260;2022-10-16T07:01:07;22.90;48.70
75493;DHT22;64071;51.466;7.260;2022-10-16T07:03:35;22.90;48.70
75493;DHT22;64071;51.466;7.260;2022-10-16T07:06:02;22.90;48.70
75493;DHT22;64071;51.466;7.260;2022-10-16T07:08:31;22.90;48.70
75493;DHT22;64071;51.466;7.260;2022-10-16T07:10:59;22.90;48.70
75493;DHT22;64071;51.466;7.260;2022-10-16T07:13:25;22.90;48.80
75493;DHT22;64071;51.466;7.260;2022-10-16T07:15:50;22.90;48.70
75493;DHT22;64071;51.466;7.260;2022-10-16T07:18:16;22.90;48.70
75493;DHT22;64071;51.466;7.260;2022-10-16T07:20:41;22.90;48.70
75493;DHT22;64071;51.466;7.260;2022-10-16T07:23:07;22.90;48.70
75493;DHT22;64071;51.466;7.260;2022-10-16T07:25:32;22.90;48.60
75493;DHT22;64071;51.466;7.260;2022-10-16T07:27:58;22.90;48.60
75493;DHT22;64071;51.466;7.260;2022-10-16T07:30:23;22.90;48.60
75493;DHT22;64071;51.466;7.260;2022-10-16T07:32:49;22.90;48.60
75493;DHT22;64071;51.466;7.260;2022-10-16T07:35:15;22.90;48.60
75493;DHT22;64071;51.466;7.260;2022-10-16T07:37:45;22.90;48.60
75493;DHT22;64071;51.466;7.260;2022-10-16T07:40:11;22.90;48.60
75493;DHT22;64071;51.466;7.260;2022-10-16T07:42:36;22.90;48.60
75493;DHT22;64071;51.466;7.260;2022-10-16T07:45:02;22.90;48.60
75493;DHT22;64071;51.466;7.260;2022-10-16T07:47:28;22.90;48.60
75493;DHT22;64071;51.466;7.260;2022-10-16T07:49:54;22.90;48.60
75493;DHT22;64071;51.466;7.260;2022-10-16T07:52:19;22.90;48.60
75493;DHT22;64071;51.466;7.260;2022-10-16T07:54:45;22.90;48.50
75493;DHT22;64071;51.466;7.260;2022-10-16T07:57:10;22.90;48.50
75493;DHT22;64071;51.466;7.260;2022-10-16T07:59:36;23.00;48.50
75493;DHT22;64071;51.466;7.260;2022-10-16T08:02:01;22.90;48.50
75493;DHT22;64071;51.466;7.260;2022-10-16T08:04:27;23.00;48.50
75493;DHT22;64071;51.466;7.260;2022-10-16T08:06:52;22.90;48.50
75493;DHT22;64071;51.466;7.260;2022-10-16T08:09:19;23.00;48.50
75493;DHT22;64071;51.466;7.260;2022-10-16T08:11:45;23.00;48.50
75493;DHT22;64071;51.466;7.260;2022-10-16T08:14:10;23.00;48.50
75493;DHT22;64071;51.466;7.260;2022-10-16T08:16:36;23.00;48.50
75493;DHT22;64071;51.466;7.260;2022-10-16T08:19:02;23.00;48.50
75493;DHT22;64071;51.466;7.260;2022-10-16T08:21:27;23.00;48.60
75493;DHT22;64071;51.466;7.260;2022-10-16T08:23:53;23.00;48.50
75493;DHT22;64071;51.466;7.260;2022-10-16T08:26:20;23.00;48.50
75493;DHT22;64071;51.466;7.260;2022-10-16T08:28:49;23.00;48.50
75493;DHT22;64071;51.466;7.260;2022-10-16T08:31:16;23.00;48.50
75493;DHT22;64071;51.466;7.260;2022-10-16T08:33:43;23.00;48.50
75493;DHT22;64071;51.466;7.260;2022-10-16T08:36:11;23.00;48.50
75493;DHT22;64071;51.466;7.260;2022-10-16T08:38:37;23.00;48.50
75493;DHT22;64071;51.466;7.260;2022-10-16T08:41:32;23.00;48.40
75493;DHT22;64071;51.466;7.260;2022-10-16T08:47:08;23.10;48.40
75493;DHT22;64071;51.466;7.260;2022-10-16T08:49:37;23.10;48.50
75493;DHT22;64071;51.466;7.260;2022-10-16T08:52:11;23.10;48.50
75493;DHT22;64071;51.466;7.260;2022-10-16T08:54:43;23.10;48.40
75493;DHT22;64071;51.466;7.260;2022-10-16T08:57:22;23.10;48.40
75493;DHT22;64071;51.466;7.260;2022-10-16T08:59:47;23.00;48.40
75493;DHT22;64071;51.466;7.260;2022-10-16T09:07:54;23.10;48.40
75493;DHT22;64071;51.466;7.260;2022-10-16T09:10:31;23.10;48.40
75493;DHT22;64071;51.466;7.260;2022-10-16T09:16:15;23.10;48.30
75493;DHT22;64071;51.466;7.260;2022-10-16T09:19:05;23.10;48.30
75493;DHT22;64071;51.466;7.260;2022-10-16T09:21:37;23.10;48.30
75493;DHT22;64071;51.466;7.260;2022-10-16T09:24:25;23.10;48.40
75493;DHT22;64071;51.466;7.260;2022-10-16T09:26:51;23.10;48.40
75493;DHT22;64071;51.466;7.260;2022-10-16T09:29:19;23.10;48.30
75493;DHT22;64071;51.466;7.260;2022-10-16T09:31:45;23.10;48.30
75493;DHT22;64071;51.466;7.260;2022-10-16T09:34:32;23.10;48.30
75493;DHT22;64071;51.466;7.260;2022-10-16T09:37:01;23.20;48.20
75493;DHT22;64071;51.466;7.260;2022-10-16T09:39:28;23.10;48.20
75493;DHT22;64071;51.466;7.260;2022-10-16T09:41:54;23.20;48.20
75493;DHT22;64071;51.466;7.260;2022-10-16T09:44:29;23.20;48.20
75493;DHT22;64071;51.466;7.260;2022-10-16T09:47:12;23.20;48.20
75493;DHT22;64071;51.466;7.260;2022-10-16T09:49:38;23.20;48.10
75493;DHT22;64071;51.466;7.260;2022-10-16T09:52:14;23.20;48.10
75493;DHT22;64071;51.466;7.260;2022-10-16T09:54:54;23.20;48.10
75493;DHT22;64071;51.466;7.260;2022-10-16T09:57:21;23.20;48.10
75493;DHT22;64071;51.466;7.260;2022-10-16T09:59:49;23.20;48.10
75493;DHT22;64071;51.466;7.260;2022-10-16T10:02:18;23.20;48.10
75493;DHT22;64071;51.466;7.260;2022-10-16T10:04:52;23.20;48.10
75493;DHT22;64071;51.466;7.260;2022-10-16T10:07:30;23.20;48.00
75493;DHT22;64071;51.466;7.260;2022-10-16T10:09:59;23.20;48.00
75493;DHT22;64071;51.466;7.260;2022-10-16T10:12:25;23.20;48.00
75493;DHT22;64071;51.466;7.260;2022-10-16T10:14:54;23.20;47.90
75493;DHT22;64071;51.466;7.260;2022-10-16T10:17:26;23.20;48.00
75493;DHT22;64071;51.466;7.260;2022-10-16T10:19:57;23.30;47.90
75493;DHT22;64071;51.466;7.260;2022-10-16T10:22:41;23.30;47.90
75493;DHT22;64071;51.466;7.260;2022-10-16T10:27:56;23.30;47.80
75493;DHT22;64071;51.466;7.260;2022-10-16T10:33:07;23.30;47.80
75493;DHT22;64071;51.466;7.260;2022-10-16T10:50:08;23.30;47.80
75493;DHT22;64071;51.466;7.260;2022-10-16T11:11:40;23.40;47.50
75493;DHT22;64071;51.466;7.260;2022-10-16T11:14:08;23.40;47.50
75493;DHT22;64071;51.466;7.260;2022-10-16T11:16:45;23.40;47.40
75493;DHT22;64071;51.466;7.260;2022-10-16T11:21:55;23.50;47.40
75493;DHT22;64071;51.466;7.260;2022-10-16T11:24:47;23.50;47.30
75493;DHT22;64071;51.466;7.260;2022-10-16T11:27:20;23.50;47.30
75493;DHT22;64071;51.466;7.260;2022-10-16T11:29:59;23.50;47.30
75493;DHT22;64071;51.466;7.260;2022-10-16T11:32:34;23.50;47.20
75493;DHT22;64071;51.466;7.260;2022-10-16T11:35:11;23.60;47.10
75493;DHT22;64071;51.466;7.260;2022-10-16T11:37:43;23.60;47.10
75493;DHT22;64071;51.466;7.260;2022-10-16T11:40:24;23.60;47.10
75493;DHT22;64071;51.466;7.260;2022-10-16T11:43:04;23.70;47.00
75493;DHT22;64071;51.466;7.260;2022-10-16T11:45:39;23.70;46.90
75493;DHT22;64071;51.466;7.260;2022-10-16T11:48:17;23.70;47.00
75493;DHT22;64071;51.466;7.260;2022-10-16T11:50:53;23.70;46.90
75493;DHT22;64071;51.466;7.260;2022-10-16T11:56:04;23.70;47.00
75493;DHT22;64071;51.466;7.260;2022-10-16T11:58:46;23.70;46.90
75493;DHT22;64071;51.466;7.260;2022-10-16T12:01:28;23.70;46.90
75493;DHT22;64071;51.466;7.260;2022-10-16T12:06:31;23.70;46.80
75493;DHT22;64071;51.466;7.260;2022-10-16T12:09:00;23.70;46.80
75493;DHT22;64071;51.466;7.260;2022-10-16T12:14:03;23.80;46.80
75493;DHT22;64071;51.466;7.260;2022-10-16T12:16:28;23.80;46.70
75493;DHT22;64071;51.466;7.260;2022-10-16T12:19:24;23.80;46.70
75493;DHT22;64071;51.466;7.260;2022-10-16T12:21:51;23.90;46.60
75493;DHT22;64071;51.466;7.260;2022-10-16T12:26:52;23.90;46.60
75493;DHT22;64071;51.466;7.260;2022-10-16T12:29:41;23.80;46.60
75493;DHT22;64071;51.466;7.260;2022-10-16T12:32:35;23.80;46.60
75493;DHT22;64071;51.466;7.260;2022-10-16T12:35:02;23.90;46.60
75493;DHT22;64071;51.466;7.260;2022-10-16T12:37:36;23.90;46.60
75493;DHT22;64071;51.466;7.260;2022-10-16T12:40:27;23.90;46.50
75493;DHT22;64071;51.466;7.260;2022-10-16T12:42:53;23.80;46.50
75493;DHT22;64071;51.466;7.260;2022-10-16T12:45:29;23.80;46.50
75493;DHT22;64071;51.466;7.260;2022-10-16T12:47:57;23.80;46.60
75493;DHT22;64071;51.466;7.260;2022-10-16T12:50:30;23.80;46.60
75493;DHT22;64071;51.466;7.260;2022-10-16T12:52:57;23.90;46.60
75493;DHT22;64071;51.466;7.260;2022-10-16T12:55:23;23.90;46.50
75493;DHT22;64071;51.466;7.260;2022-10-16T12:58:22;23.90;46.40
75493;DHT22;64071;51.466;7.260;2022-10-16T13:06:14;23.90;46.40
75493;DHT22;64071;51.466;7.260;2022-10-16T13:11:20;23.90;46.50
75493;DHT22;64071;51.466;7.260;2022-10-16T13:16:30;23.90;46.50
75493;DHT22;64071;51.466;7.260;2022-10-16T13:19:29;23.90;46.50
75493;DHT22;64071;51.466;7.260;2022-10-16T13:30:30;24.00;46.30
75493;DHT22;64071;51.466;7.260;2022-10-16T13:33:02;24.00;46.30
75493;DHT22;64071;51.466;7.260;2022-10-16T13:35:31;24.00;46.20
75493;DHT22;64071;51.466;7.260;2022-10-16T13:38:15;24.10;46.20
75493;DHT22;64071;51.466;7.260;2022-10-16T13:40:58;24.00;46.20
75493;DHT22;64071;51.466;7.260;2022-10-16T13:43:38;24.00;46.20
75493;DHT22;64071;51.466;7.260;2022-10-16T13:46:07;24.00;46.30
75493;DHT22;64071;51.466;7.260;2022-10-16T13:48:33;24.00;46.30
75493;DHT22;64071;51.466;7.260;2022-10-16T13:51:01;24.00;46.20
75493;DHT22;64071;51.466;7.260;2022-10-16T13:53:27;24.10;46.20
75493;DHT22;64071;51.466;7.260;2022-10-16T13:55:52;24.10;46.20
75493;DHT22;64071;51.466;7.260;2022-10-16T13:58:18;24.10;46.10
75493;DHT22;64071;51.466;7.260;2022-10-16T14:00:58;24.10;46.00
75493;DHT22;64071;51.466;7.260;2022-10-16T14:03:25;24.10;46.00
75493;DHT22;64071;51.466;7.260;2022-10-16T14:05:59;24.10;46.00
75493;DHT22;64071;51.466;7.260;2022-10-16T14:08:27;24.10;46.00
75493;DHT22;64071;51.466;7.260;2022-10-16T14:10:56;24.00;46.00
75493;DHT22;64071;51.466;7.260;2022-10-16T14:13:34;24.00;46.20
75493;DHT22;64071;51.466;7.260;2022-10-16T14:16:07;24.10;46.00
75493;DHT22;64071;51.466;7.260;2022-10-16T14:18:34;24.10;46.10
75493;DHT22;64071;51.466;7.260;2022-10-16T14:21:05;24.10;46.00
75493;DHT22;64071;51.466;7.260;2022-10-16T14:23:36;24.10;45.90
75493;DHT22;64071;51.466;7.260;2022-10-16T14:28:36;24.10;45.90
75493;DHT22;64071;51.466;7.260;2022-10-16T14:31:23;24.10;45.80
75493;DHT22;64071;51.466;7.260;2022-10-16T14:33:50;24.10;45.80
75493;DHT22;64071;51.466;7.260;2022-10-16T14:36:16;24.10;45.90
75493;DHT22;64071;51.466;7.260;2022-10-16T14:39:14;24.10;45.80
75493;DHT22;64071;51.466;7.260;2022-10-16T14:41:46;24.10;45.80
75493;DHT22;64071;51.466;7.260;2022-10-16T14:44:12;24.10;45.90
75493;DHT22;64071;51.466;7.260;2022-10-16T14:46:39;24.10;45.90
75493;DHT22;64071;51.466;7.260;2022-10-16T14:51:34;24.00;46.30
75493;DHT22;64071;51.466;7.260;2022-10-16T14:54:00;24.00;46.30
75493;DHT22;64071;51.466;7.260;2022-10-16T14:56:30;24.00;46.40
75493;DHT22;64071;51.466;7.260;2022-10-16T14:58:56;24.00;46.50
75493;DHT22;64071;51.466;7.260;2022-10-16T15:01:22;24.00;46.40
75493;DHT22;64071;51.466;7.260;2022-10-16T15:03:48;24.00;46.40
75493;DHT22;64071;51.466;7.260;2022-10-16T15:06:15;24.00;46.30
75493;DHT22;64071;51.466;7.260;2022-10-16T15:08:41;24.00;46.30
75493;DHT22;64071;51.466;7.260;2022-10-16T15:11:15;24.00;46.30
75493;DHT22;64071;51.466;7.260;2022-10-16T15:13:41;24.00;46.20
75493;DHT22;64071;51.466;7.260;2022-10-16T15:16:11;24.00;46.20
75493;DHT22;64071;51.466;7.260;2022-10-16T15:18:36;24.00;46.20
75493;DHT22;64071;51.466;7.260;2022-10-16T15:21:02;24.00;46.20
75493;DHT22;64071;51.466;7.260;2022-10-16T15:23:28;23.90;46.20
75493;DHT22;64071;51.466;7.260;2022-10-16T15:25:55;23.90;46.30
75493;DHT22;64071;51.466;7.260;2022-10-16T15:28:22;23.90;46.20
75493;DHT22;64071;51.466;7.260;2022-10-16T15:30:52;23.90;46.20
75493;DHT22;64071;51.466;7.260;2022-10-16T15:33:21;23.90;46.20
75493;DHT22;64071;51.466;7.260;2022-10-16T15:35:52;24.00;46.20
75493;DHT22;64071;51.466;7.260;2022-10-16T15:38:19;23.90;46.10
75493;DHT22;64071;51.466;7.260;2022-10-16T15:40:46;23.90;46.20
75493;DHT22;64071;51.466;7.260;2022-10-16T15:43:12;23.90;46.20
75493;DHT22;64071;51.466;7.260;2022-10-16T15:45:38;23.90;46.20
75493;DHT22;64071;51.466;7.260;2022-10-16T15:48:04;23.90;46.20
75493;DHT22;64071;51.466;7.260;2022-10-16T15:52:58;23.90;46.10
75493;DHT22;64071;51.466;7.260;2022-10-16T15:55:24;23.90;46.20
75493;DHT22;64071;51.466;7.260;2022-10-16T15:57:49;23.90;46.10
75493;DHT22;64071;51.466;7.260;2022-10-16T16:00:18;23.90;46.10
75493;DHT22;64071;51.466;7.260;2022-10-16T16:02:51;23.80;46.10
75493;DHT22;64071;51.466;7.260;2022-10-16T16:05:17;23.80;46.10
75493;DHT22;64071;51.466;7.260;2022-10-16T16:07:43;23.80;46.10
75493;DHT22;64071;51.466;7.260;2022-10-16T16:10:10;23.80;46.10
75493;DHT22;64071;51.466;7.260;2022-10-16T16:12:36;23.80;46.10
75493;DHT22;64071;51.466;7.260;2022-10-16T16:15:03;23.80;46.10
75493;DHT22;64071;51.466;7.260;2022-10-16T16:17:30;23.80;46.10
75493;DHT22;64071;51.466;7.260;2022-10-16T16:19:56;23.80;46.10
75493;DHT22;64071;51.466;7.260;2022-10-16T16:22:21;23.80;46.10
75493;DHT22;64071;51.466;7.260;2022-10-16T16:24:47;23.80;46.20
75493;DHT22;64071;51.466;7.260;2022-10-16T16:27:12;23.80;46.20
75493;DHT22;64071;51.466;7.260;2022-10-16T16:29:39;23.80;46.20
75493;DHT22;64071;51.466;7.260;2022-10-16T16:32:05;23.70;46.20
75493;DHT22;64071;51.466;7.260;2022-10-16T16:34:30;23.70;46.20
75493;DHT22;64071;51.466;7.260;2022-10-16T16:36:56;23.80;46.20
75493;DHT22;64071;51.466;7.260;2022-10-16T16:39:22;23.80;46.30
75493;DHT22;64071;51.466;7.260;2022-10-16T16:41:48;23.80;46.30
75493;DHT22;64071;51.466;7.260;2022-10-16T16:44:15;23.70;46.30
75493;DHT22;64071;51.466;7.260;2022-10-16T16:46:42;23.70;46.40
75493;DHT22;64071;51.466;7.260;2022-10-16T16:49:10;23.70;46.40
75493;DHT22;64071;51.466;7.260;2022-10-16T16:51:36;23.70;46.30
75493;DHT22;64071;51.466;7.260;2022-10-16T16:54:02;23.70;46.40
75493;DHT22;64071;51.466;7.260;2022-10-16T16:56:28;23.70;46.40
75493;DHT22;64071;51.466;7.260;2022-10-16T16:58:55;23.70;46.30
75493;DHT22;64071;51.466;7.260;2022-10-16T17:01:25;23.70;46.40
75493;DHT22;64071;51.466;7.260;2022-10-16T17:03:54;23.70;46.50
75493;DHT22;64071;51.466;7.260;2022-10-16T17:06:25;23.70;46.40
75493;DHT22;64071;51.466;7.260;2022-10-16T17:08:51;23.60;46.50
75493;DHT22;64071;51.466;7.260;2022-10-16T17:11:21;23.60;46.50
75493;DHT22;64071;51.466;7.260;2022-10-16T17:13:48;23.60;46.50
75493;DHT22;64071;51.466;7.260;2022-10-16T17:16:13;23.60;46.50
75493;DHT22;64071;51.466;7.260;2022-10-16T17:18:39;23.60;46.60
75493;DHT22;64071;51.466;7.260;2022-10-16T17:21:07;23.60;46.60
75493;DHT22;64071;51.466;7.260;2022-10-16T17:23:35;23.60;46.60
75493;DHT22;64071;51.466;7.260;2022-10-16T17:26:09;23.60;46.60